createdAt,value
2023-04-18T00:01:40.380Z,9.50
2023-04-18T00:04:10.015Z,9.40
2023-04-18T00:06:37.891Z,9.30
2023-04-18T00:09:06.031Z,9.30
2023-04-18T00:11:34.573Z,9.20
2023-04-18T00:14:03.388Z,9.20
2023-04-18T00:16:33.125Z,9.20
2023-04-18T00:19:02.307Z,9.20
2023-04-18T00:21:30.160Z,9.20
2023-04-18T00:23:57.998Z,9.10
2023-04-18T00:26:25.753Z,9.10
2023-04-18T00:28:53.610Z,9.10
2023-04-18T00:31:21.560Z,9.00
2023-04-18T00:33:49.318Z,9.00
2023-04-18T00:36:18.423Z,9.00
2023-04-18T00:38:46.340Z,8.90
2023-04-18T00:41:14.100Z,8.90
2023-04-18T00:43:41.901Z,8.90
2023-04-18T00:46:10.893Z,8.90
2023-04-18T00:48:39.008Z,8.80
2023-04-18T00:51:07.633Z,8.80
2023-04-18T00:53:37.109Z,8.70
2023-04-18T00:56:04.973Z,8.70
2023-04-18T00:58:33.031Z,8.70
2023-04-18T01:01:00.831Z,8.70
2023-04-18T01:03:28.704Z,8.60
2023-04-18T01:05:57.517Z,8.60
2023-04-18T01:08:25.602Z,8.60
2023-04-18T01:10:55.374Z,8.60
2023-04-18T01:13:23.148Z,8.60
2023-04-18T01:15:51.412Z,8.60
2023-04-18T01:18:20.910Z,8.60
2023-04-18T01:20:49.822Z,8.60
2023-04-18T01:23:18.721Z,8.50
2023-04-18T01:25:49.331Z,8.50
2023-04-18T01:28:17.140Z,8.50
2023-04-18T01:30:45.076Z,8.50
2023-04-18T01:33:12.951Z,8.50
2023-04-18T01:35:40.883Z,8.50
2023-04-18T01:38:08.739Z,8.40
2023-04-18T01:40:36.489Z,8.40
2023-04-18T01:43:05.597Z,8.40
2023-04-18T01:45:33.489Z,8.40
2023-04-18T01:48:01.218Z,8.40
2023-04-18T01:50:29.022Z,8.30
2023-04-18T01:52:57.051Z,8.30
2023-04-18T01:55:24.908Z,8.30
2023-04-18T01:57:52.938Z,8.30
2023-04-18T02:00:22.534Z,8.30
2023-04-18T02:02:51.119Z,8.20
2023-04-18T02:05:19.065Z,8.10
2023-04-18T02:07:47.682Z,8.10
2023-04-18T02:10:15.430Z,8.00
2023-04-18T02:12:43.254Z,8.00
2023-04-18T02:15:11.676Z,8.00
2023-04-18T02:17:41.996Z,8.00
2023-04-18T02:20:10.983Z,7.90
2023-04-18T02:22:39.468Z,7.90
2023-04-18T02:25:07.727Z,7.90
2023-04-18T02:27:35.497Z,7.90
2023-04-18T02:30:03.631Z,7.80
2023-04-18T02:32:31.497Z,7.80
2023-04-18T02:35:00.650Z,7.80
2023-04-18T02:37:28.565Z,7.70
2023-04-18T02:39:56.564Z,7.60
2023-04-18T02:42:24.327Z,7.60
2023-04-18T02:44:52.104Z,7.60
2023-04-18T02:47:19.971Z,7.60
2023-04-18T02:49:47.700Z,7.50
2023-04-18T02:52:17.468Z,7.50
2023-04-18T02:54:45.291Z,7.50
2023-04-18T02:57:13.053Z,7.40
2023-04-18T02:59:40.882Z,7.40
2023-04-18T03:02:08.648Z,7.40
2023-04-18T03:04:36.504Z,7.30
2023-04-18T03:07:04.429Z,7.30
2023-04-18T03:09:33.510Z,7.30
2023-04-18T03:12:02.158Z,7.20
2023-04-18T03:14:30.146Z,7.20
2023-04-18T03:16:57.881Z,7.20
2023-04-18T03:19:25.661Z,7.10
2023-04-18T03:21:53.474Z,7.10
2023-04-18T03:24:21.190Z,7.10
2023-04-18T03:26:50.321Z,7.10
2023-04-18T03:29:18.145Z,7.00
2023-04-18T03:31:46.094Z,7.00
2023-04-18T03:34:14.167Z,6.90
2023-04-18T03:36:42.352Z,6.90
2023-04-18T03:39:10.495Z,6.80
2023-04-18T03:41:38.183Z,6.80
2023-04-18T03:44:07.432Z,6.80
2023-04-18T03:46:35.304Z,6.80
2023-04-18T03:49:03.307Z,6.80
2023-04-18T03:51:33.373Z,6.80
2023-04-18T03:54:01.618Z,6.70
2023-04-18T03:56:29.400Z,6.70
2023-04-18T03:58:58.728Z,6.70
2023-04-18T04:01:27.936Z,6.60
2023-04-18T04:03:55.829Z,6.60
2023-04-18T04:06:24.114Z,6.60
2023-04-18T04:08:51.894Z,6.60
2023-04-18T04:11:19.835Z,6.60
2023-04-18T04:13:47.789Z,6.50
2023-04-18T04:16:15.762Z,6.50
2023-04-18T04:18:44.925Z,6.50
2023-04-18T04:21:12.802Z,6.50
2023-04-18T04:23:42.355Z,6.50
2023-04-18T04:26:10.151Z,6.40
2023-04-18T04:28:38.903Z,6.50
2023-04-18T04:31:08.319Z,6.40
2023-04-18T04:33:38.646Z,6.40
2023-04-18T04:36:08.904Z,6.40
2023-04-18T04:38:38.556Z,6.40
2023-04-18T04:41:07.578Z,6.40
2023-04-18T04:43:36.163Z,6.40
2023-04-18T04:46:04.158Z,6.40
2023-04-18T04:48:31.938Z,6.30
2023-04-18T04:51:00.942Z,6.30
2023-04-18T04:53:31.429Z,6.30
2023-04-18T04:55:59.741Z,6.30
2023-04-18T04:58:27.813Z,6.30
2023-04-18T05:00:55.916Z,6.30
2023-04-18T05:03:23.841Z,6.30
2023-04-18T05:05:51.986Z,6.30
2023-04-18T05:08:19.766Z,6.30
2023-04-18T05:10:50.235Z,6.30
2023-04-18T05:13:18.382Z,6.30
2023-04-18T05:15:46.218Z,6.30
2023-04-18T05:18:14.358Z,6.30
2023-04-18T05:20:42.298Z,6.30
2023-04-18T05:23:10.139Z,6.30
2023-04-18T05:25:38.130Z,6.40
2023-04-18T05:28:08.402Z,6.40
2023-04-18T05:30:36.350Z,6.40
2023-04-18T05:33:04.302Z,6.50
2023-04-18T05:35:32.373Z,6.50
2023-04-18T05:38:00.201Z,6.60
2023-04-18T05:40:28.309Z,6.60
2023-04-18T05:42:56.343Z,6.60
2023-04-18T05:45:25.472Z,6.70
2023-04-18T05:47:54.070Z,6.70
2023-04-18T05:50:23.125Z,6.70
2023-04-18T05:52:53.121Z,6.80
2023-04-18T05:55:21.212Z,6.80
2023-04-18T05:57:49.155Z,6.90
2023-04-18T06:00:17.446Z,6.90
2023-04-18T06:02:46.874Z,7.00
2023-04-18T06:05:15.403Z,7.10
2023-04-18T06:07:43.453Z,7.10
2023-04-18T06:10:13.415Z,7.20
2023-04-18T06:12:41.497Z,7.20
2023-04-18T06:15:09.910Z,7.20
2023-04-18T06:17:37.854Z,7.30
2023-04-18T06:20:07.942Z,7.30
2023-04-18T06:22:35.754Z,7.40
2023-04-18T06:25:04.809Z,7.40
2023-04-18T06:27:32.843Z,7.60
2023-04-18T06:30:00.678Z,7.60
2023-04-18T06:32:28.635Z,7.60
2023-04-18T06:34:56.616Z,7.60
2023-04-18T06:37:25.917Z,7.60
2023-04-18T06:39:53.977Z,7.60
2023-04-18T06:42:22.646Z,7.70
2023-04-18T06:44:50.807Z,7.70
2023-04-18T06:47:18.775Z,7.80
2023-04-18T06:49:46.904Z,7.80
2023-04-18T06:52:14.712Z,7.90
2023-04-18T06:54:43.829Z,7.90
2023-04-18T06:57:11.849Z,8.00
2023-04-18T06:59:41.423Z,8.10
2023-04-18T07:02:09.200Z,8.20
2023-04-18T07:04:37.152Z,8.40
2023-04-18T07:07:05.469Z,8.50
2023-04-18T07:09:33.489Z,8.60
2023-04-18T07:12:03.054Z,8.70
2023-04-18T07:14:32.866Z,8.80
2023-04-18T07:17:02.719Z,8.80
2023-04-18T07:19:30.518Z,8.80
2023-04-18T07:21:58.422Z,8.90
2023-04-18T07:24:26.648Z,8.90
2023-04-18T07:26:55.174Z,9.00
2023-04-18T07:29:24.554Z,8.90
2023-04-18T07:31:53.206Z,8.90
2023-04-18T07:34:22.053Z,8.90
2023-04-18T07:36:49.860Z,8.90
2023-04-18T07:39:18.147Z,9.00
2023-04-18T07:41:46.152Z,9.10
2023-04-18T07:44:14.350Z,9.40
2023-04-18T07:46:44.133Z,9.40
2023-04-18T07:49:12.231Z,9.40
2023-04-18T07:51:40.269Z,9.40
2023-04-18T07:54:08.320Z,9.50
2023-04-18T07:56:36.102Z,9.60
2023-04-18T07:59:03.968Z,9.60
2023-04-18T08:01:31.844Z,9.60
2023-04-18T08:04:02.089Z,9.60
2023-04-18T08:06:30.256Z,9.70
2023-04-18T08:08:59.000Z,9.80
2023-04-18T08:11:27.019Z,9.90
2023-04-18T08:13:55.001Z,10.10
2023-04-18T08:16:23.171Z,10.20
2023-04-18T08:18:51.123Z,10.10
2023-04-18T08:21:20.374Z,10.00
2023-04-18T08:23:48.347Z,10.00
2023-04-18T08:26:16.169Z,10.00
2023-04-18T08:28:46.321Z,10.00
2023-04-18T08:31:15.070Z,10.00
2023-04-18T08:33:43.022Z,10.10
2023-04-18T08:36:12.074Z,10.10
2023-04-18T08:38:41.323Z,10.10
2023-04-18T08:41:09.381Z,10.00
2023-04-18T08:43:38.455Z,10.00
2023-04-18T08:46:06.783Z,10.10
2023-04-18T08:48:34.745Z,10.10
2023-04-18T08:51:03.100Z,10.10
2023-04-18T08:53:32.690Z,10.20
2023-04-18T08:56:03.205Z,10.40
2023-04-18T08:58:34.094Z,10.50
2023-04-18T09:01:02.380Z,10.50
2023-04-18T09:03:37.745Z,10.60
2023-04-18T09:06:12.598Z,10.60
2023-04-18T09:08:42.169Z,10.60
2023-04-18T09:11:25.949Z,10.70
2023-04-18T09:13:56.433Z,10.90
2023-04-18T09:16:24.924Z,11.10
2023-04-18T09:19:12.854Z,11.30
2023-04-18T09:21:42.467Z,11.10
2023-04-18T09:24:20.701Z,11.00
2023-04-18T09:26:50.836Z,11.10
2023-04-18T09:29:22.546Z,11.50
2023-04-18T09:31:57.498Z,11.80
2023-04-18T09:34:26.479Z,11.90
2023-04-18T09:37:15.011Z,11.90
2023-04-18T09:39:43.767Z,11.80
2023-04-18T09:42:13.869Z,11.90
2023-04-18T09:45:02.637Z,11.90
2023-04-18T09:47:30.894Z,11.80
2023-04-18T09:49:58.757Z,11.80
2023-04-18T09:52:26.943Z,11.80
2023-04-18T09:54:56.509Z,11.80
2023-04-18T09:57:27.523Z,11.70
2023-04-18T09:59:59.778Z,11.80
2023-04-18T10:02:30.119Z,11.90
2023-04-18T10:05:00.750Z,11.80
2023-04-18T10:07:28.698Z,11.80
2023-04-18T10:09:56.567Z,11.90
2023-04-18T10:12:25.775Z,11.80
2023-04-18T10:14:54.534Z,11.80
2023-04-18T10:17:22.522Z,11.70
2023-04-18T10:20:05.680Z,11.90
2023-04-18T10:22:34.099Z,12.10
2023-04-18T10:25:02.009Z,12.30
2023-04-18T10:27:48.307Z,12.30
2023-04-18T10:30:17.977Z,12.20
2023-04-18T10:32:47.026Z,12.10
2023-04-18T10:35:15.021Z,12.00
2023-04-18T10:37:50.542Z,11.90
2023-04-18T10:40:18.465Z,12.00
2023-04-18T10:43:01.551Z,12.00
2023-04-18T10:45:36.454Z,12.00
2023-04-18T10:48:24.254Z,12.00
2023-04-18T10:51:07.250Z,12.10
2023-04-18T10:53:35.110Z,12.00
2023-04-18T10:56:04.661Z,11.90
2023-04-18T10:58:33.199Z,12.00
2023-04-18T11:01:04.345Z,12.20
2023-04-18T11:03:33.400Z,12.50
2023-04-18T11:06:02.244Z,12.70
2023-04-18T11:08:31.291Z,12.80
2023-04-18T11:11:07.006Z,12.60
2023-04-18T11:13:37.076Z,12.40
2023-04-18T11:16:06.820Z,12.10
2023-04-18T11:18:42.097Z,12.10
2023-04-18T11:21:09.912Z,12.30
2023-04-18T11:23:37.897Z,12.40
2023-04-18T11:26:07.627Z,12.50
2023-04-18T11:28:35.805Z,12.40
2023-04-18T11:31:03.844Z,12.30
2023-04-18T11:33:33.650Z,12.30
2023-04-18T11:36:01.922Z,12.10
2023-04-18T11:38:30.849Z,12.10
2023-04-18T11:40:58.893Z,12.20
2023-04-18T11:43:26.841Z,12.20
2023-04-18T11:45:55.003Z,12.10
2023-04-18T11:48:23.480Z,12.20
2023-04-18T11:50:52.684Z,12.20
2023-04-18T11:53:32.710Z,12.20
2023-04-18T11:56:01.088Z,12.20
2023-04-18T11:58:32.709Z,12.30
2023-04-18T12:01:00.759Z,12.60
2023-04-18T12:03:30.170Z,12.80
2023-04-18T12:06:02.874Z,12.70
2023-04-18T12:08:32.526Z,12.60
2023-04-18T12:11:00.383Z,12.50
2023-04-18T12:13:32.730Z,12.60
2023-04-18T12:16:02.765Z,12.70
2023-04-18T12:18:31.461Z,12.90
2023-04-18T12:21:01.939Z,13.00
2023-04-18T12:23:31.545Z,13.00
2023-04-18T12:25:59.765Z,12.80
2023-04-18T12:28:27.664Z,12.80
2023-04-18T12:30:55.537Z,12.70
2023-04-18T12:33:23.344Z,12.80
2023-04-18T12:35:52.425Z,12.80
2023-04-18T12:38:21.311Z,12.80
2023-04-18T12:40:51.604Z,12.60
2023-04-18T12:43:19.920Z,12.60
2023-04-18T12:45:48.429Z,12.70
2023-04-18T12:48:16.391Z,12.80
2023-04-18T12:50:44.434Z,13.00
2023-04-18T12:53:12.273Z,13.10
2023-04-18T12:55:40.323Z,13.10
2023-04-18T12:58:09.463Z,13.10
2023-04-18T13:00:37.495Z,13.20
2023-04-18T13:03:06.213Z,13.10
2023-04-18T13:05:34.574Z,13.00
2023-04-18T13:10:33.322Z,12.80
2023-04-18T13:13:01.601Z,12.60
2023-04-18T13:15:30.975Z,12.70
2023-04-18T13:18:05.669Z,12.60
2023-04-18T13:20:34.406Z,12.70
2023-04-18T13:23:03.149Z,12.90
2023-04-18T13:25:41.930Z,13.00
2023-04-18T13:28:10.054Z,12.90
2023-04-18T13:30:39.379Z,12.80
2023-04-18T13:33:07.448Z,12.80
2023-04-18T13:35:50.227Z,12.80
